sensor_id;sensor_type;location;lat;lon;timestamp;temperature;humidity
9466;DHT22;4771;48.726;9.006;2023-08-07T00:00:26;11.20;99.90
9466;DHT22;4771;48.726;9.006;2023-08-07T00:02:53;11.20;99.90
9466;DHT22;4771;48.726;9.006;2023-08-07T00:05:20;11.20;99.90
9466;DHT22;4771;48.726;9.006;2023-08-07T00:07:49;11.20;99.90
9466;DHT22;4771;48.726;9.006;2023-08-07T00:10:16;11.30;99.90
9466;DHT22;4771;48.726;9.006;2023-08-07T00:12:43;11.30;99.90
9466;DHT22;4771;48.726;9.006;2023-08-07T00:15:10;11.30;99.90
9466;DHT22;4771;48.726;9.006;2023-08-07T00:17:37;11.30;99.90
9466;DHT22;4771;48.726;9.006;2023-08-07T00:20:05;11.40;99.90
9466;DHT22;4771;48.726;9.006;2023-08-07T00:22:32;11.30;99.90
9466;DHT22;4771;48.726;9.006;2023-08-07T00:25:00;11.20;99.90
9466;DHT22;4771;48.726;9.006;2023-08-07T00:27:27;11.20;99.90
9466;DHT22;4771;48.726;9.006;2023-08-07T00:29:54;11.20;99.90
9466;DHT22;4771;48.726;9.006;2023-08-07T00:32:20;11.10;99.90
9466;DHT22;4771;48.726;9.006;2023-08-07T00:34:47;11.10;99.90
9466;DHT22;4771;48.726;9.006;2023-08-07T00:37:14;11.20;99.90
9466;DHT22;4771;48.726;9.006;2023-08-07T00:39:41;11.20;99.90
9466;DHT22;4771;48.726;9.006;2023-08-07T00:42:09;11.30;99.90
9466;DHT22;4771;48.726;9.006;2023-08-07T00:44:36;11.20;99.90
9466;DHT22;4771;48.726;9.006;2023-08-07T00:47:03;11.20;99.90
9466;DHT22;4771;48.726;9.006;2023-08-07T00:49:30;11.10;99.90
9466;DHT22;4771;48.726;9.006;2023-08-07T00:51:57;11.20;99.90
9466;DHT22;4771;48.726;9.006;2023-08-07T00:54:25;11.20;99.90
9466;DHT22;4771;48.726;9.006;2023-08-07T00:56:52;11.30;99.90
9466;DHT22;4771;48.726;9.006;2023-08-07T00:59:21;11.20;99.90
9466;DHT22;4771;48.726;9.006;2023-08-07T01:01:49;11.10;99.90
9466;DHT22;4771;48.726;9.006;2023-08-07T01:04:15;11.10;99.90
9466;DHT22;4771;48.726;9.006;2023-08-07T01:06:42;11.10;99.90
9466;DHT22;4771;48.726;9.006;2023-08-07T01:09:09;11.10;99.90
9466;DHT22;4771;48.726;9.006;2023-08-07T01:11:43;11.10;99.90
9466;DHT22;4771;48.726;9.006;2023-08-07T01:14:28;11.20;99.90
9466;DHT22;4771;48.726;9.006;2023-08-07T01:17:05;11.20;99.90
9466;DHT22;4771;48.726;9.006;2023-08-07T01:19:34;11.20;99.90
9466;DHT22;4771;48.726;9.006;2023-08-07T01:22:06;11.20;99.90
9466;DHT22;4771;48.726;9.006;2023-08-07T01:24:33;11.30;99.90
9466;DHT22;4771;48.726;9.006;2023-08-07T01:27:14;11.30;99.90
9466;DHT22;4771;48.726;9.006;2023-08-07T01:29:51;11.30;99.90
9466;DHT22;4771;48.726;9.006;2023-08-07T01:32:22;11.30;99.90
9466;DHT22;4771;48.726;9.006;2023-08-07T01:34:51;11.20;99.90
9466;DHT22;4771;48.726;9.006;2023-08-07T01:37:22;11.30;99.90
9466;DHT22;4771;48.726;9.006;2023-08-07T01:39:50;11.20;99.90
9466;DHT22;4771;48.726;9.006;2023-08-07T01:42:18;11.20;99.90
9466;DHT22;4771;48.726;9.006;2023-08-07T01:44:45;11.20;99.90
9466;DHT22;4771;48.726;9.006;2023-08-07T01:47:13;11.30;99.90
9466;DHT22;4771;48.726;9.006;2023-08-07T01:49:39;11.20;99.90
9466;DHT22;4771;48.726;9.006;2023-08-07T01:52:08;11.20;99.90
9466;DHT22;4771;48.726;9.006;2023-08-07T01:54:36;11.20;99.90
9466;DHT22;4771;48.726;9.006;2023-08-07T01:57:04;11.20;99.90
9466;DHT22;4771;48.726;9.006;2023-08-07T01:59:30;11.30;99.90
9466;DHT22;4771;48.726;9.006;2023-08-07T02:01:57;11.30;99.90
9466;DHT22;4771;48.726;9.006;2023-08-07T02:04:24;11.30;99.90
9466;DHT22;4771;48.726;9.006;2023-08-07T02:06:51;11.40;99.90
9466;DHT22;4771;48.726;9.006;2023-08-07T02:09:18;11.30;99.90
9466;DHT22;4771;48.726;9.006;2023-08-07T02:11:46;11.20;99.90
9466;DHT22;4771;48.726;9.006;2023-08-07T02:14:13;11.30;99.90
9466;DHT22;4771;48.726;9.006;2023-08-07T02:16:40;11.30;99.90
9466;DHT22;4771;48.726;9.006;2023-08-07T02:19:06;11.30;99.90
9466;DHT22;4771;48.726;9.006;2023-08-07T02:21:33;11.30;99.90
9466;DHT22;4771;48.726;9.006;2023-08-07T02:24:00;11.30;99.90
9466;DHT22;4771;48.726;9.006;2023-08-07T02:26:27;11.20;99.90
9466;DHT22;4771;48.726;9.006;2023-08-07T02:28:55;11.10;99.90
9466;DHT22;4771;48.726;9.006;2023-08-07T02:31:22;11.10;99.90
9466;DHT22;4771;48.726;9.006;2023-08-07T02:33:49;11.20;99.90
9466;DHT22;4771;48.726;9.006;2023-08-07T02:36:16;11.00;99.90
9466;DHT22;4771;48.726;9.006;2023-08-07T02:38:43;11.30;99.90
9466;DHT22;4771;48.726;9.006;2023-08-07T02:41:09;11.20;99.90
9466;DHT22;4771;48.726;9.006;2023-08-07T02:43:37;11.20;99.90
9466;DHT22;4771;48.726;9.006;2023-08-07T02:46:05;11.20;99.90
9466;DHT22;4771;48.726;9.006;2023-08-07T02:48:32;11.20;99.90
9466;DHT22;4771;48.726;9.006;2023-08-07T02:50:58;11.20;99.90
9466;DHT22;4771;48.726;9.006;2023-08-07T02:53:25;11.30;99.90
9466;DHT22;4771;48.726;9.006;2023-08-07T02:55:52;11.30;99.90
9466;DHT22;4771;48.726;9.006;2023-08-07T02:58:19;11.20;99.90
9466;DHT22;4771;48.726;9.006;2023-08-07T03:00:46;11.30;99.90
9466;DHT22;4771;48.726;9.006;2023-08-07T03:03:14;11.10;99.90
9466;DHT22;4771;48.726;9.006;2023-08-07T03:05:48;11.10;99.90
9466;DHT22;4771;48.726;9.006;2023-08-07T03:08:15;11.10;99.90
9466;DHT22;4771;48.726;9.006;2023-08-07T03:10:42;11.00;99.90
9466;DHT22;4771;48.726;9.006;2023-08-07T03:13:09;11.00;99.90
9466;DHT22;4771;48.726;9.006;2023-08-07T03:15:36;11.00;99.90
9466;DHT22;4771;48.726;9.006;2023-08-07T03:18:03;11.00;99.90
9466;DHT22;4771;48.726;9.006;2023-08-07T03:20:31;11.00;99.90
9466;DHT22;4771;48.726;9.006;2023-08-07T03:22:58;10.90;99.90
9466;DHT22;4771;48.726;9.006;2023-08-07T03:25:24;11.00;99.90
9466;DHT22;4771;48.726;9.006;2023-08-07T03:27:51;11.10;99.90
9466;DHT22;4771;48.726;9.006;2023-08-07T03:30:18;11.10;99.90
9466;DHT22;4771;48.726;9.006;2023-08-07T03:32:45;11.20;99.90
9466;DHT22;4771;48.726;9.006;2023-08-07T03:35:12;11.10;99.90
9466;DHT22;4771;48.726;9.006;2023-08-07T03:37:40;11.10;99.90
9466;DHT22;4771;48.726;9.006;2023-08-07T03:40:08;11.10;99.90
9466;DHT22;4771;48.726;9.006;2023-08-07T03:42:35;11.20;99.90
9466;DHT22;4771;48.726;9.006;2023-08-07T03:45:02;11.20;99.90
9466;DHT22;4771;48.726;9.006;2023-08-07T03:47:28;11.20;99.90
9466;DHT22;4771;48.726;9.006;2023-08-07T03:49:55;11.20;99.90
9466;DHT22;4771;48.726;9.006;2023-08-07T03:52:22;11.10;99.90
9466;DHT22;4771;48.726;9.006;2023-08-07T03:54:50;11.10;99.90
9466;DHT22;4771;48.726;9.006;2023-08-07T03:57:17;11.10;99.90
9466;DHT22;4771;48.726;9.006;2023-08-07T03:59:44;11.10;99.90
9466;DHT22;4771;48.726;9.006;2023-08-07T04:02:11;11.10;99.90
9466;DHT22;4771;48.726;9.006;2023-08-07T04:04:38;11.20;99.90
9466;DHT22;4771;48.726;9.006;2023-08-07T04:07:05;11.10;99.90
9466;DHT22;4771;48.726;9.006;2023-08-07T04:09:33;11.10;99.90
9466;DHT22;4771;48.726;9.006;2023-08-07T04:12:01;11.00;99.90
9466;DHT22;4771;48.726;9.006;2023-08-07T04:14:28;11.10;99.90
9466;DHT22;4771;48.726;9.006;2023-08-07T04:16:55;10.90;99.90
9466;DHT22;4771;48.726;9.006;2023-08-07T04:19:22;11.10;99.90
9466;DHT22;4771;48.726;9.006;2023-08-07T04:21:49;11.20;99.90
9466;DHT22;4771;48.726;9.006;2023-08-07T04:24:16;11.10;99.90
9466;DHT22;4771;48.726;9.006;2023-08-07T04:26:42;11.10;99.90
9466;DHT22;4771;48.726;9.006;2023-08-07T04:29:11;11.10;99.90
9466;DHT22;4771;48.726;9.006;2023-08-07T04:31:37;11.00;99.90
9466;DHT22;4771;48.726;9.006;2023-08-07T04:34:04;11.10;99.90
9466;DHT22;4771;48.726;9.006;2023-08-07T04:36:31;11.10;99.90
9466;DHT22;4771;48.726;9.006;2023-08-07T04:38:59;11.10;99.90
9466;DHT22;4771;48.726;9.006;2023-08-07T04:41:27;11.00;99.90
9466;DHT22;4771;48.726;9.006;2023-08-07T04:43:53;11.00;99.90
9466;DHT22;4771;48.726;9.006;2023-08-07T04:46:22;11.00;99.90
9466;DHT22;4771;48.726;9.006;2023-08-07T04:48:48;11.10;99.90
9466;DHT22;4771;48.726;9.006;2023-08-07T04:51:15;11.00;99.90
9466;DHT22;4771;48.726;9.006;2023-08-07T04:53:42;11.00;99.90
9466;DHT22;4771;48.726;9.006;2023-08-07T04:56:09;11.10;99.90
9466;DHT22;4771;48.726;9.006;2023-08-07T04:58:36;11.20;99.90
9466;DHT22;4771;48.726;9.006;2023-08-07T05:01:03;11.00;99.90
9466;DHT22;4771;48.726;9.006;2023-08-07T05:03:31;11.20;99.90
9466;DHT22;4771;48.726;9.006;2023-08-07T05:05:58;11.10;99.90
9466;DHT22;4771;48.726;9.006;2023-08-07T05:08:25;11.20;99.90
9466;DHT22;4771;48.726;9.006;2023-08-07T05:10:52;11.20;99.90
9466;DHT22;4771;48.726;9.006;2023-08-07T05:13:19;11.30;99.90
9466;DHT22;4771;48.726;9.006;2023-08-07T05:15:47;11.40;99.90
9466;DHT22;4771;48.726;9.006;2023-08-07T05:18:14;11.30;99.90
9466;DHT22;4771;48.726;9.006;2023-08-07T05:20:42;11.30;99.90
9466;DHT22;4771;48.726;9.006;2023-08-07T05:23:09;11.40;99.90
9466;DHT22;4771;48.726;9.006;2023-08-07T05:25:37;11.40;99.90
9466;DHT22;4771;48.726;9.006;2023-08-07T05:28:04;11.40;99.90
9466;DHT22;4771;48.726;9.006;2023-08-07T05:30:31;11.50;99.90
9466;DHT22;4771;48.726;9.006;2023-08-07T05:32:58;11.50;99.90
9466;DHT22;4771;48.726;9.006;2023-08-07T05:35:25;11.60;99.90
9466;DHT22;4771;48.726;9.006;2023-08-07T05:37:53;11.50;99.90
9466;DHT22;4771;48.726;9.006;2023-08-07T05:40:20;11.60;99.90
9466;DHT22;4771;48.726;9.006;2023-08-07T05:42:47;11.60;99.90
9466;DHT22;4771;48.726;9.006;2023-08-07T05:45:14;11.60;99.90
9466;DHT22;4771;48.726;9.006;2023-08-07T05:47:41;11.60;99.90
9466;DHT22;4771;48.726;9.006;2023-08-07T05:50:08;11.60;99.90
9466;DHT22;4771;48.726;9.006;2023-08-07T05:52:35;11.70;99.90
9466;DHT22;4771;48.726;9.006;2023-08-07T05:55:05;11.80;99.90
9466;DHT22;4771;48.726;9.006;2023-08-07T05:57:32;11.90;99.90
9466;DHT22;4771;48.726;9.006;2023-08-07T05:59:58;11.90;99.90
9466;DHT22;4771;48.726;9.006;2023-08-07T06:02:25;12.10;99.90
9466;DHT22;4771;48.726;9.006;2023-08-07T06:04:52;12.00;99.90
9466;DHT22;4771;48.726;9.006;2023-08-07T06:07:19;11.90;99.90
9466;DHT22;4771;48.726;9.006;2023-08-07T06:09:46;12.00;99.90
9466;DHT22;4771;48.726;9.006;2023-08-07T06:12:14;11.80;99.90
9466;DHT22;4771;48.726;9.006;2023-08-07T06:14:41;12.00;99.90
9466;DHT22;4771;48.726;9.006;2023-08-07T06:17:08;12.00;99.90
9466;DHT22;4771;48.726;9.006;2023-08-07T06:19:35;12.00;99.90
9466;DHT22;4771;48.726;9.006;2023-08-07T06:22:02;12.00;99.90
9466;DHT22;4771;48.726;9.006;2023-08-07T06:24:29;12.10;99.90
9466;DHT22;4771;48.726;9.006;2023-08-07T06:26:56;12.00;99.90
9466;DHT22;4771;48.726;9.006;2023-08-07T06:29:24;12.10;99.90
9466;DHT22;4771;48.726;9.006;2023-08-07T06:31:51;12.10;99.90
9466;DHT22;4771;48.726;9.006;2023-08-07T06:34:18;12.10;99.90
9466;DHT22;4771;48.726;9.006;2023-08-07T06:36:45;12.10;99.90
9466;DHT22;4771;48.726;9.006;2023-08-07T06:39:12;12.00;99.90
9466;DHT22;4771;48.726;9.006;2023-08-07T06:41:39;12.10;99.90
9466;DHT22;4771;48.726;9.006;2023-08-07T06:44:06;12.10;99.90
9466;DHT22;4771;48.726;9.006;2023-08-07T06:46:34;12.10;99.90
9466;DHT22;4771;48.726;9.006;2023-08-07T06:49:01;12.10;99.90
9466;DHT22;4771;48.726;9.006;2023-08-07T06:51:27;12.20;99.90
9466;DHT22;4771;48.726;9.006;2023-08-07T06:53:54;12.20;99.90
9466;DHT22;4771;48.726;9.006;2023-08-07T06:56:21;12.20;99.90
9466;DHT22;4771;48.726;9.006;2023-08-07T06:58:48;12.30;99.90
9466;DHT22;4771;48.726;9.006;2023-08-07T07:01:15;12.30;99.90
9466;DHT22;4771;48.726;9.006;2023-08-07T07:03:43;12.40;99.90
9466;DHT22;4771;48.726;9.006;2023-08-07T07:06:12;12.40;99.90
9466;DHT22;4771;48.726;9.006;2023-08-07T07:08:39;12.50;99.90
9466;DHT22;4771;48.726;9.006;2023-08-07T07:11:06;12.50;99.90
9466;DHT22;4771;48.726;9.006;2023-08-07T07:13:33;12.50;99.90
9466;DHT22;4771;48.726;9.006;2023-08-07T07:16:00;12.50;99.90
9466;DHT22;4771;48.726;9.006;2023-08-07T07:18:27;12.40;99.90
9466;DHT22;4771;48.726;9.006;2023-08-07T07:20:59;12.40;99.90
9466;DHT22;4771;48.726;9.006;2023-08-07T07:23:27;12.50;99.90
9466;DHT22;4771;48.726;9.006;2023-08-07T07:25:54;12.50;99.90
9466;DHT22;4771;48.726;9.006;2023-08-07T07:28:21;12.60;99.90
9466;DHT22;4771;48.726;9.006;2023-08-07T07:30:48;12.80;99.90
9466;DHT22;4771;48.726;9.006;2023-08-07T07:33:15;12.90;99.90
9466;DHT22;4771;48.726;9.006;2023-08-07T07:35:42;13.00;99.90
9466;DHT22;4771;48.726;9.006;2023-08-07T07:38:11;13.10;99.90
9466;DHT22;4771;48.726;9.006;2023-08-07T07:40:37;13.10;99.90
9466;DHT22;4771;48.726;9.006;2023-08-07T07:43:04;13.20;99.90
9466;DHT22;4771;48.726;9.006;2023-08-07T07:45:31;13.30;99.90
9466;DHT22;4771;48.726;9.006;2023-08-07T07:47:59;13.40;99.90
9466;DHT22;4771;48.726;9.006;2023-08-07T07:50:26;13.40;99.90
9466;DHT22;4771;48.726;9.006;2023-08-07T07:52:53;13.40;99.90
9466;DHT22;4771;48.726;9.006;2023-08-07T07:55:21;13.40;99.90
9466;DHT22;4771;48.726;9.006;2023-08-07T07:57:48;13.40;99.90
9466;DHT22;4771;48.726;9.006;2023-08-07T08:00:15;13.50;99.90
9466;DHT22;4771;48.726;9.006;2023-08-07T08:02:43;13.40;99.90
9466;DHT22;4771;48.726;9.006;2023-08-07T08:05:10;13.50;99.90
9466;DHT22;4771;48.726;9.006;2023-08-07T08:07:38;13.50;99.90
9466;DHT22;4771;48.726;9.006;2023-08-07T08:10:06;13.60;99.90
9466;DHT22;4771;48.726;9.006;2023-08-07T08:12:36;13.50;99.90
9466;DHT22;4771;48.726;9.006;2023-08-07T08:15:03;13.50;99.90
9466;DHT22;4771;48.726;9.006;2023-08-07T08:17:30;13.50;99.90
9466;DHT22;4771;48.726;9.006;2023-08-07T08:19:57;13.70;99.90
9466;DHT22;4771;48.726;9.006;2023-08-07T08:22:24;13.70;99.90
9466;DHT22;4771;48.726;9.006;2023-08-07T08:24:51;13.80;99.90
9466;DHT22;4771;48.726;9.006;2023-08-07T08:27:18;13.90;99.90
9466;DHT22;4771;48.726;9.006;2023-08-07T08:29:46;13.90;99.90
9466;DHT22;4771;48.726;9.006;2023-08-07T08:32:13;13.90;99.90
9466;DHT22;4771;48.726;9.006;2023-08-07T08:34:40;13.90;99.90
9466;DHT22;4771;48.726;9.006;2023-08-07T08:37:07;14.00;99.90
9466;DHT22;4771;48.726;9.006;2023-08-07T08:39:36;14.10;99.90
9466;DHT22;4771;48.726;9.006;2023-08-07T08:42:03;14.20;99.90
9466;DHT22;4771;48.726;9.006;2023-08-07T08:44:31;14.30;99.90
9466;DHT22;4771;48.726;9.006;2023-08-07T08:47:04;14.30;99.90
9466;DHT22;4771;48.726;9.006;2023-08-07T08:49:35;14.30;99.90
9466;DHT22;4771;48.726;9.006;2023-08-07T08:52:04;14.40;99.90
9466;DHT22;4771;48.726;9.006;2023-08-07T08:54:32;14.30;99.90
9466;DHT22;4771;48.726;9.006;2023-08-07T08:56:59;14.30;99.90
9466;DHT22;4771;48.726;9.006;2023-08-07T08:59:26;14.30;99.90
9466;DHT22;4771;48.726;9.006;2023-08-07T09:01:54;14.20;99.90
9466;DHT22;4771;48.726;9.006;2023-08-07T09:04:22;14.20;99.90
9466;DHT22;4771;48.726;9.006;2023-08-07T09:06:49;14.30;99.90
9466;DHT22;4771;48.726;9.006;2023-08-07T09:09:20;14.40;99.90
9466;DHT22;4771;48.726;9.006;2023-08-07T09:11:47;14.30;99.90
9466;DHT22;4771;48.726;9.006;2023-08-07T09:14:16;14.30;99.90
9466;DHT22;4771;48.726;9.006;2023-08-07T09:16:44;14.40;99.90
9466;DHT22;4771;48.726;9.006;2023-08-07T09:19:12;14.40;99.90
9466;DHT22;4771;48.726;9.006;2023-08-07T09:21:40;14.50;99.90
9466;DHT22;4771;48.726;9.006;2023-08-07T09:24:08;14.50;99.90
9466;DHT22;4771;48.726;9.006;2023-08-07T09:26:35;14.60;99.90
9466;DHT22;4771;48.726;9.006;2023-08-07T09:29:02;14.60;99.90
9466;DHT22;4771;48.726;9.006;2023-08-07T09:31:29;14.70;99.90
9466;DHT22;4771;48.726;9.006;2023-08-07T09:40:43;14.70;99.90
9466;DHT22;4771;48.726;9.006;2023-08-07T09:43:20;14.70;99.90
9466;DHT22;4771;48.726;9.006;2023-08-07T09:45:48;14.70;99.90
9466;DHT22;4771;48.726;9.006;2023-08-07T09:48:23;14.50;99.90
9466;DHT22;4771;48.726;9.006;2023-08-07T09:50:51;14.50;99.90
9466;DHT22;4771;48.726;9.006;2023-08-07T09:53:18;14.40;99.90
9466;DHT22;4771;48.726;9.006;2023-08-07T09:55:54;14.50;99.90
9466;DHT22;4771;48.726;9.006;2023-08-07T09:58:21;14.40;99.90
9466;DHT22;4771;48.726;9.006;2023-08-07T10:00:48;14.50;99.90
9466;DHT22;4771;48.726;9.006;2023-08-07T10:03:15;14.40;99.90
9466;DHT22;4771;48.726;9.006;2023-08-07T10:05:43;14.40;99.90
9466;DHT22;4771;48.726;9.006;2023-08-07T10:08:10;14.50;99.90
9466;DHT22;4771;48.726;9.006;2023-08-07T10:10:38;14.50;99.90
9466;DHT22;4771;48.726;9.006;2023-08-07T10:13:06;14.50;99.90
9466;DHT22;4771;48.726;9.006;2023-08-07T10:15:34;14.60;99.90
9466;DHT22;4771;48.726;9.006;2023-08-07T10:18:01;14.60;99.90
9466;DHT22;4771;48.726;9.006;2023-08-07T10:20:29;14.60;99.90
9466;DHT22;4771;48.726;9.006;2023-08-07T10:23:00;14.70;99.90
9466;DHT22;4771;48.726;9.006;2023-08-07T10:25:31;14.80;99.90
9466;DHT22;4771;48.726;9.006;2023-08-07T10:27:59;14.80;99.90
9466;DHT22;4771;48.726;9.006;2023-08-07T10:30:29;14.80;99.90
9466;DHT22;4771;48.726;9.006;2023-08-07T10:32:58;14.80;99.90
9466;DHT22;4771;48.726;9.006;2023-08-07T10:35:26;14.90;99.90
9466;DHT22;4771;48.726;9.006;2023-08-07T10:38:05;14.90;99.90
9466;DHT22;4771;48.726;9.006;2023-08-07T10:40:32;15.00;99.90
9466;DHT22;4771;48.726;9.006;2023-08-07T10:43:13;15.10;99.90
9466;DHT22;4771;48.726;9.006;2023-08-07T10:45:44;15.20;99.90
9466;DHT22;4771;48.726;9.006;2023-08-07T10:48:12;15.30;99.90
9466;DHT22;4771;48.726;9.006;2023-08-07T10:50:56;15.40;99.90
9466;DHT22;4771;48.726;9.006;2023-08-07T10:53:29;15.40;99.90
9466;DHT22;4771;48.726;9.006;2023-08-07T10:55:56;15.30;99.90
9466;DHT22;4771;48.726;9.006;2023-08-07T10:58:25;15.20;99.90
9466;DHT22;4771;48.726;9.006;2023-08-07T11:01:20;15.30;99.90
9466;DHT22;4771;48.726;9.006;2023-08-07T11:03:52;15.30;99.90
9466;DHT22;4771;48.726;9.006;2023-08-07T11:06:22;15.40;99.90
9466;DHT22;4771;48.726;9.006;2023-08-07T11:08:50;15.40;99.90
9466;DHT22;4771;48.726;9.006;2023-08-07T11:11:17;15.30;99.90
9466;DHT22;4771;48.726;9.006;2023-08-07T11:13:44;15.20;99.90
9466;DHT22;4771;48.726;9.006;2023-08-07T11:16:15;15.20;99.90
9466;DHT22;4771;48.726;9.006;2023-08-07T11:18:42;15.10;99.90
9466;DHT22;4771;48.726;9.006;2023-08-07T11:21:10;15.10;99.90
9466;DHT22;4771;48.726;9.006;2023-08-07T11:23:38;15.20;99.90
9466;DHT22;4771;48.726;9.006;2023-08-07T11:26:05;15.20;99.90
9466;DHT22;4771;48.726;9.006;2023-08-07T11:28:32;15.20;99.90
9466;DHT22;4771;48.726;9.006;2023-08-07T11:30:59;15.10;99.90
9466;DHT22;4771;48.726;9.006;2023-08-07T11:33:28;15.00;99.90
9466;DHT22;4771;48.726;9.006;2023-08-07T11:35:55;14.90;99.90
9466;DHT22;4771;48.726;9.006;2023-08-07T11:38:30;14.90;99.90
9466;DHT22;4771;48.726;9.006;2023-08-07T11:40:58;14.80;99.90
9466;DHT22;4771;48.726;9.006;2023-08-07T11:43:27;14.80;99.90
9466;DHT22;4771;48.726;9.006;2023-08-07T11:45:55;14.70;99.90
9466;DHT22;4771;48.726;9.006;2023-08-07T11:48:24;14.70;99.90
9466;DHT22;4771;48.726;9.006;2023-08-07T11:50:53;14.70;99.90
9466;DHT22;4771;48.726;9.006;2023-08-07T11:53:20;14.70;99.90
9466;DHT22;4771;48.726;9.006;2023-08-07T11:55:51;14.70;99.90
9466;DHT22;4771;48.726;9.006;2023-08-07T11:58:19;14.60;99.90
9466;DHT22;4771;48.726;9.006;2023-08-07T12:00:46;14.70;99.90
9466;DHT22;4771;48.726;9.006;2023-08-07T12:03:27;14.70;99.90
9466;DHT22;4771;48.726;9.006;2023-08-07T12:05:57;14.60;99.90
9466;DHT22;4771;48.726;9.006;2023-08-07T12:08:24;14.60;99.90
9466;DHT22;4771;48.726;9.006;2023-08-07T12:10:53;14.70;99.90
9466;DHT22;4771;48.726;9.006;2023-08-07T12:13:23;14.80;99.90
9466;DHT22;4771;48.726;9.006;2023-08-07T12:15:52;14.70;99.90
9466;DHT22;4771;48.726;9.006;2023-08-07T12:18:19;14.70;99.90
9466;DHT22;4771;48.726;9.006;2023-08-07T12:20:49;14.60;99.90
9466;DHT22;4771;48.726;9.006;2023-08-07T12:23:18;14.60;99.90
9466;DHT22;4771;48.726;9.006;2023-08-07T12:25:47;14.60;99.90
9466;DHT22;4771;48.726;9.006;2023-08-07T12:28:15;14.60;99.90
9466;DHT22;4771;48.726;9.006;2023-08-07T12:30:46;14.50;99.90
9466;DHT22;4771;48.726;9.006;2023-08-07T12:33:14;14.50;99.90
9466;DHT22;4771;48.726;9.006;2023-08-07T12:35:41;14.60;99.90
9466;DHT22;4771;48.726;9.006;2023-08-07T12:38:08;14.70;99.90
9466;DHT22;4771;48.726;9.006;2023-08-07T12:40:37;14.70;99.90
9466;DHT22;4771;48.726;9.006;2023-08-07T12:43:04;14.80;99.90
9466;DHT22;4771;48.726;9.006;2023-08-07T12:45:32;14.90;99.90
9466;DHT22;4771;48.726;9.006;2023-08-07T12:47:59;14.90;99.90
9466;DHT22;4771;48.726;9.006;2023-08-07T12:50:27;14.90;99.90
9466;DHT22;4771;48.726;9.006;2023-08-07T12:52:54;15.00;99.90
9466;DHT22;4771;48.726;9.006;2023-08-07T12:55:22;15.00;99.90
9466;DHT22;4771;48.726;9.006;2023-08-07T12:57:50;15.00;99.90
9466;DHT22;4771;48.726;9.006;2023-08-07T13:00:18;15.10;99.90
9466;DHT22;4771;48.726;9.006;2023-08-07T13:02:46;15.10;99.90
9466;DHT22;4771;48.726;9.006;2023-08-07T13:05:14;15.10;99.90
9466;DHT22;4771;48.726;9.006;2023-08-07T13:07:42;15.10;99.90
9466;DHT22;4771;48.726;9.006;2023-08-07T13:10:10;15.20;99.90
9466;DHT22;4771;48.726;9.006;2023-08-07T13:12:38;15.30;99.90
9466;DHT22;4771;48.726;9.006;2023-08-07T13:15:09;15.30;99.90
9466;DHT22;4771;48.726;9.006;2023-08-07T13:17:37;15.30;99.90
9466;DHT22;4771;48.726;9.006;2023-08-07T13:20:05;15.30;99.90
9466;DHT22;4771;48.726;9.006;2023-08-07T13:22:33;15.30;99.90
9466;DHT22;4771;48.726;9.006;2023-08-07T13:25:00;15.30;99.90
9466;DHT22;4771;48.726;9.006;2023-08-07T13:27:28;15.30;99.90
9466;DHT22;4771;48.726;9.006;2023-08-07T13:29:56;15.40;99.90
9466;DHT22;4771;48.726;9.006;2023-08-07T13:32:24;15.40;99.90
9466;DHT22;4771;48.726;9.006;2023-08-07T13:34:51;15.40;99.90
9466;DHT22;4771;48.726;9.006;2023-08-07T13:37:18;15.60;99.90
9466;DHT22;4771;48.726;9.006;2023-08-07T13:39:45;15.80;99.90
9466;DHT22;4771;48.726;9.006;2023-08-07T13:42:14;15.90;99.90
9466;DHT22;4771;48.726;9.006;2023-08-07T13:44:41;16.30;99.90
9466;DHT22;4771;48.726;9.006;2023-08-07T13:47:08;16.60;99.90
9466;DHT22;4771;48.726;9.006;2023-08-07T13:49:37;16.70;99.90
9466;DHT22;4771;48.726;9.006;2023-08-07T13:52:04;16.90;99.90
9466;DHT22;4771;48.726;9.006;2023-08-07T13:54:31;17.10;99.90
9466;DHT22;4771;48.726;9.006;2023-08-07T13:56:58;17.50;99.90
9466;DHT22;4771;48.726;9.006;2023-08-07T13:59:25;17.60;99.90
9466;DHT22;4771;48.726;9.006;2023-08-07T14:01:52;17.90;99.90
9466;DHT22;4771;48.726;9.006;2023-08-07T14:04:20;18.10;99.90
9466;DHT22;4771;48.726;9.006;2023-08-07T14:06:48;18.20;99.30
9466;DHT22;4771;48.726;9.006;2023-08-07T14:09:15;18.20;98.20
9466;DHT22;4771;48.726;9.006;2023-08-07T14:11:44;17.80;95.40
9466;DHT22;4771;48.726;9.006;2023-08-07T14:14:10;17.70;97.80
9466;DHT22;4771;48.726;9.006;2023-08-07T14:16:37;17.80;99.80
9466;DHT22;4771;48.726;9.006;2023-08-07T14:19:04;17.90;99.90
9466;DHT22;4771;48.726;9.006;2023-08-07T14:21:31;18.00;99.90
9466;DHT22;4771;48.726;9.006;2023-08-07T14:23:59;17.90;99.90
9466;DHT22;4771;48.726;9.006;2023-08-07T14:26:26;17.90;99.90
9466;DHT22;4771;48.726;9.006;2023-08-07T14:28:53;17.70;96.60
9466;DHT22;4771;48.726;9.006;2023-08-07T14:31:20;17.40;98.10
9466;DHT22;4771;48.726;9.006;2023-08-07T14:33:47;17.20;99.90
9466;DHT22;4771;48.726;9.006;2023-08-07T14:36:14;17.10;99.90
9466;DHT22;4771;48.726;9.006;2023-08-07T14:38:41;17.00;99.90
9466;DHT22;4771;48.726;9.006;2023-08-07T14:41:09;17.00;99.90
9466;DHT22;4771;48.726;9.006;2023-08-07T14:43:36;16.90;99.90
9466;DHT22;4771;48.726;9.006;2023-08-07T14:46:03;16.70;99.90
9466;DHT22;4771;48.726;9.006;2023-08-07T14:48:30;16.60;99.90
9466;DHT22;4771;48.726;9.006;2023-08-07T14:50:56;16.30;99.90
9466;DHT22;4771;48.726;9.006;2023-08-07T14:53:24;16.00;99.90
9466;DHT22;4771;48.726;9.006;2023-08-07T14:55:52;15.90;99.90
9466;DHT22;4771;48.726;9.006;2023-08-07T14:58:21;15.90;99.90
9466;DHT22;4771;48.726;9.006;2023-08-07T15:00:48;15.90;99.90
9466;DHT22;4771;48.726;9.006;2023-08-07T15:03:16;15.90;99.90
9466;DHT22;4771;48.726;9.006;2023-08-07T15:05:43;15.90;99.90
9466;DHT22;4771;48.726;9.006;2023-08-07T15:08:10;16.00;99.90
9466;DHT22;4771;48.726;9.006;2023-08-07T15:10:37;16.20;99.90
9466;DHT22;4771;48.726;9.006;2023-08-07T15:13:05;16.50;99.90
9466;DHT22;4771;48.726;9.006;2023-08-07T15:15:33;16.70;99.90
9466;DHT22;4771;48.726;9.006;2023-08-07T15:18:00;16.90;99.90
9466;DHT22;4771;48.726;9.006;2023-08-07T15:20:29;17.20;99.90
9466;DHT22;4771;48.726;9.006;2023-08-07T15:22:56;17.20;99.90
9466;DHT22;4771;48.726;9.006;2023-08-07T15:25:23;17.20;99.90
9466;DHT22;4771;48.726;9.006;2023-08-07T15:27:50;17.20;99.90
9466;DHT22;4771;48.726;9.006;2023-08-07T15:30:17;17.20;99.90
9466;DHT22;4771;48.726;9.006;2023-08-07T15:32:45;17.20;99.90
9466;DHT22;4771;48.726;9.006;2023-08-07T15:35:12;17.10;99.90
9466;DHT22;4771;48.726;9.006;2023-08-07T15:37:39;17.00;99.90
9466;DHT22;4771;48.726;9.006;2023-08-07T15:40:07;16.80;99.90
9466;DHT22;4771;48.726;9.006;2023-08-07T15:42:34;16.80;99.90
9466;DHT22;4771;48.726;9.006;2023-08-07T15:45:01;16.80;99.90
9466;DHT22;4771;48.726;9.006;2023-08-07T15:47:30;16.70;99.90
9466;DHT22;4771;48.726;9.006;2023-08-07T15:49:58;16.60;99.90
9466;DHT22;4771;48.726;9.006;2023-08-07T15:52:25;16.60;99.90
9466;DHT22;4771;48.726;9.006;2023-08-07T15:54:52;16.50;99.90
9466;DHT22;4771;48.726;9.006;2023-08-07T15:57:19;16.50;99.90
9466;DHT22;4771;48.726;9.006;2023-08-07T15:59:45;16.50;99.90
9466;DHT22;4771;48.726;9.006;2023-08-07T16:02:12;16.50;99.90
9466;DHT22;4771;48.726;9.006;2023-08-07T16:04:39;16.60;99.90
9466;DHT22;4771;48.726;9.006;2023-08-07T16:07:07;16.60;99.90
9466;DHT22;4771;48.726;9.006;2023-08-07T16:09:35;16.70;99.90
9466;DHT22;4771;48.726;9.006;2023-08-07T16:12:02;16.70;99.90